sensor_id;sensor_type;location;lat;lon;timestamp;temperature;humidity
52058;DHT22;38063;53.210;6.504;2022-09-03T00:01:27;17.10;77.10
52058;DHT22;38063;53.210;6.504;2022-09-03T00:04:01;17.10;77.40
52058;DHT22;38063;53.210;6.504;2022-09-03T00:06:35;17.00;77.50
52058;DHT22;38063;53.210;6.504;2022-09-03T00:09:24;17.00;77.40
52058;DHT22;38063;53.210;6.504;2022-09-03T00:12:42;17.00;77.50
52058;DHT22;38063;53.210;6.504;2022-09-03T00:14:59;17.00;77.80
52058;DHT22;38063;53.210;6.504;2022-09-03T00:17:33;17.00;77.60
52058;DHT22;38063;53.210;6.504;2022-09-03T00:20:12;16.90;77.50
52058;DHT22;38063;53.210;6.504;2022-09-03T00:22:43;16.90;77.60
52058;DHT22;38063;53.210;6.504;2022-09-03T00:25:14;16.90;78.20
52058;DHT22;38063;53.210;6.504;2022-09-03T00:27:43;16.90;77.60
52058;DHT22;38063;53.210;6.504;2022-09-03T00:30:12;16.90;77.50
52058;DHT22;38063;53.210;6.504;2022-09-03T00:32:55;16.90;77.60
52058;DHT22;38063;53.210;6.504;2022-09-03T00:35:31;16.90;77.70
52058;DHT22;38063;53.210;6.504;2022-09-03T00:37:58;16.80;77.50
52058;DHT22;38063;53.210;6.504;2022-09-03T00:43:29;16.80;77.40
52058;DHT22;38063;53.210;6.504;2022-09-03T00:54:19;16.70;78.00
52058;DHT22;38063;53.210;6.504;2022-09-03T00:57:07;16.60;78.40
52058;DHT22;38063;53.210;6.504;2022-09-03T00:59:48;16.60;78.50
52058;DHT22;38063;53.210;6.504;2022-09-03T01:13:40;16.40;79.20
52058;DHT22;38063;53.210;6.504;2022-09-03T01:16:24;16.50;79.50
52058;DHT22;38063;53.210;6.504;2022-09-03T01:22:11;16.30;79.40
52058;DHT22;38063;53.210;6.504;2022-09-03T01:36:33;16.20;79.80
52058;DHT22;38063;53.210;6.504;2022-09-03T01:39:04;16.20;80.00
52058;DHT22;38063;53.210;6.504;2022-09-03T01:41:55;16.20;79.80
52058;DHT22;38063;53.210;6.504;2022-09-03T01:47:42;16.20;80.30
52058;DHT22;38063;53.210;6.504;2022-09-03T01:52:57;16.10;80.20
52058;DHT22;38063;53.210;6.504;2022-09-03T02:00:49;16.00;80.60
52058;DHT22;38063;53.210;6.504;2022-09-03T02:03:16;16.00;80.70
52058;DHT22;38063;53.210;6.504;2022-09-03T02:05:42;16.00;80.80
52058;DHT22;38063;53.210;6.504;2022-09-03T02:08:09;16.20;80.90
52058;DHT22;38063;53.210;6.504;2022-09-03T02:13:11;16.00;81.10
52058;DHT22;38063;53.210;6.504;2022-09-03T02:15:42;15.80;81.10
52058;DHT22;38063;53.210;6.504;2022-09-03T02:18:51;15.90;81.20
52058;DHT22;38063;53.210;6.504;2022-09-03T02:21:12;15.90;81.40
52058;DHT22;38063;53.210;6.504;2022-09-03T02:23:39;15.80;81.40
52058;DHT22;38063;53.210;6.504;2022-09-03T02:26:08;15.80;81.60
52058;DHT22;38063;53.210;6.504;2022-09-03T02:28:34;15.70;81.90
52058;DHT22;38063;53.210;6.504;2022-09-03T02:31:00;15.70;82.30
52058;DHT22;38063;53.210;6.504;2022-09-03T02:33:26;15.60;82.70
52058;DHT22;38063;53.210;6.504;2022-09-03T02:35:52;15.60;83.30
52058;DHT22;38063;53.210;6.504;2022-09-03T02:38:21;15.50;83.60
52058;DHT22;38063;53.210;6.504;2022-09-03T02:40:49;15.40;83.90
52058;DHT22;38063;53.210;6.504;2022-09-03T02:43:26;15.80;84.40
52058;DHT22;38063;53.210;6.504;2022-09-03T02:46:00;15.40;84.60
52058;DHT22;38063;53.210;6.504;2022-09-03T02:48:26;15.30;84.80
52058;DHT22;38063;53.210;6.504;2022-09-03T02:50:52;15.20;85.20
52058;DHT22;38063;53.210;6.504;2022-09-03T02:53:18;15.20;85.50
52058;DHT22;38063;53.210;6.504;2022-09-03T02:55:44;15.20;85.80
52058;DHT22;38063;53.210;6.504;2022-09-03T02:58:10;15.20;86.10
52058;DHT22;38063;53.210;6.504;2022-09-03T03:00:35;15.10;86.30
52058;DHT22;38063;53.210;6.504;2022-09-03T03:03:05;15.10;86.60
52058;DHT22;38063;53.210;6.504;2022-09-03T03:05:53;15.10;86.90
52058;DHT22;38063;53.210;6.504;2022-09-03T03:08:24;15.00;87.20
52058;DHT22;38063;53.210;6.504;2022-09-03T03:10:55;15.00;87.30
52058;DHT22;38063;53.210;6.504;2022-09-03T03:13:26;15.00;87.60
52058;DHT22;38063;53.210;6.504;2022-09-03T03:15:55;15.00;87.70
52058;DHT22;38063;53.210;6.504;2022-09-03T03:18:21;15.00;87.90
52058;DHT22;38063;53.210;6.504;2022-09-03T03:20:46;15.00;88.00
52058;DHT22;38063;53.210;6.504;2022-09-03T03:23:13;14.90;88.20
52058;DHT22;38063;53.210;6.504;2022-09-03T03:25:39;15.00;88.60
52058;DHT22;38063;53.210;6.504;2022-09-03T03:28:05;14.90;88.70
52058;DHT22;38063;53.210;6.504;2022-09-03T03:30:32;14.90;88.80
52058;DHT22;38063;53.210;6.504;2022-09-03T03:32:58;14.90;89.10
52058;DHT22;38063;53.210;6.504;2022-09-03T03:35:24;14.80;89.30
52058;DHT22;38063;53.210;6.504;2022-09-03T03:37:50;14.90;89.50
52058;DHT22;38063;53.210;6.504;2022-09-03T03:40:16;14.90;89.60
52058;DHT22;38063;53.210;6.504;2022-09-03T03:42:41;14.90;89.60
52058;DHT22;38063;53.210;6.504;2022-09-03T03:45:08;14.90;89.80
52058;DHT22;38063;53.210;6.504;2022-09-03T03:47:34;14.90;89.90
52058;DHT22;38063;53.210;6.504;2022-09-03T03:50:01;14.90;89.90
52058;DHT22;38063;53.210;6.504;2022-09-03T03:52:27;14.90;89.90
52058;DHT22;38063;53.210;6.504;2022-09-03T03:54:53;14.90;90.00
52058;DHT22;38063;53.210;6.504;2022-09-03T03:57:19;15.00;90.00
52058;DHT22;38063;53.210;6.504;2022-09-03T03:59:46;14.90;90.00
52058;DHT22;38063;53.210;6.504;2022-09-03T04:02:12;14.90;90.00
52058;DHT22;38063;53.210;6.504;2022-09-03T04:04:38;15.00;90.00
52058;DHT22;38063;53.210;6.504;2022-09-03T04:07:04;15.00;90.00
52058;DHT22;38063;53.210;6.504;2022-09-03T04:09:29;15.10;90.10
52058;DHT22;38063;53.210;6.504;2022-09-03T04:11:55;15.10;90.20
52058;DHT22;38063;53.210;6.504;2022-09-03T04:14:24;15.10;90.20
52058;DHT22;38063;53.210;6.504;2022-09-03T04:16:50;15.10;90.20
52058;DHT22;38063;53.210;6.504;2022-09-03T04:19:16;15.10;90.20
52058;DHT22;38063;53.210;6.504;2022-09-03T04:21:42;15.10;90.30
52058;DHT22;38063;53.210;6.504;2022-09-03T04:24:08;15.10;90.40
52058;DHT22;38063;53.210;6.504;2022-09-03T04:26:34;15.00;90.50
52058;DHT22;38063;53.210;6.504;2022-09-03T04:29:02;15.10;90.50
52058;DHT22;38063;53.210;6.504;2022-09-03T04:31:29;15.00;90.60
52058;DHT22;38063;53.210;6.504;2022-09-03T04:33:55;15.00;90.60
52058;DHT22;38063;53.210;6.504;2022-09-03T04:36:23;15.00;90.70
52058;DHT22;38063;53.210;6.504;2022-09-03T04:38:51;15.00;90.90
52058;DHT22;38063;53.210;6.504;2022-09-03T04:41:24;15.00;91.00
52058;DHT22;38063;53.210;6.504;2022-09-03T04:43:51;15.00;91.10
52058;DHT22;38063;53.210;6.504;2022-09-03T04:46:18;14.90;91.20
52058;DHT22;38063;53.210;6.504;2022-09-03T04:48:48;14.90;91.30
52058;DHT22;38063;53.210;6.504;2022-09-03T04:51:18;14.90;91.40
52058;DHT22;38063;53.210;6.504;2022-09-03T04:53:46;14.90;91.50
52058;DHT22;38063;53.210;6.504;2022-09-03T04:56:18;14.90;91.50
52058;DHT22;38063;53.210;6.504;2022-09-03T04:58:44;14.90;91.70
52058;DHT22;38063;53.210;6.504;2022-09-03T05:01:16;14.90;91.80
52058;DHT22;38063;53.210;6.504;2022-09-03T05:03:42;14.80;91.90
52058;DHT22;38063;53.210;6.504;2022-09-03T05:06:08;14.80;92.00
52058;DHT22;38063;53.210;6.504;2022-09-03T05:08:34;14.90;92.20
52058;DHT22;38063;53.210;6.504;2022-09-03T05:11:04;14.80;92.20
52058;DHT22;38063;53.210;6.504;2022-09-03T05:13:31;14.80;92.30
52058;DHT22;38063;53.210;6.504;2022-09-03T05:15:59;14.80;92.40
52058;DHT22;38063;53.210;6.504;2022-09-03T05:18:25;14.80;92.50
52058;DHT22;38063;53.210;6.504;2022-09-03T05:21:06;14.80;92.60
52058;DHT22;38063;53.210;6.504;2022-09-03T05:23:37;14.80;92.70
52058;DHT22;38063;53.210;6.504;2022-09-03T05:26:05;14.80;92.80
52058;DHT22;38063;53.210;6.504;2022-09-03T05:28:36;14.80;92.80
52058;DHT22;38063;53.210;6.504;2022-09-03T05:31:06;14.90;92.80
52058;DHT22;38063;53.210;6.504;2022-09-03T05:33:37;14.80;92.90
52058;DHT22;38063;53.210;6.504;2022-09-03T05:36:05;14.80;93.00
52058;DHT22;38063;53.210;6.504;2022-09-03T05:38:31;14.90;93.00
52058;DHT22;38063;53.210;6.504;2022-09-03T05:41:01;14.90;93.10
52058;DHT22;38063;53.210;6.504;2022-09-03T05:43:28;14.90;93.10
52058;DHT22;38063;53.210;6.504;2022-09-03T05:45:58;14.80;93.10
52058;DHT22;38063;53.210;6.504;2022-09-03T05:48:28;14.90;93.50
52058;DHT22;38063;53.210;6.504;2022-09-03T05:51:12;14.90;93.20
52058;DHT22;38063;53.210;6.504;2022-09-03T05:53:41;14.90;93.40
52058;DHT22;38063;53.210;6.504;2022-09-03T05:56:09;15.00;93.40
52058;DHT22;38063;53.210;6.504;2022-09-03T05:58:39;14.80;93.60
52058;DHT22;38063;53.210;6.504;2022-09-03T06:01:13;14.80;93.60
52058;DHT22;38063;53.210;6.504;2022-09-03T06:03:40;14.80;93.70
52058;DHT22;38063;53.210;6.504;2022-09-03T06:06:06;14.90;93.80
52058;DHT22;38063;53.210;6.504;2022-09-03T06:08:33;14.80;93.90
52058;DHT22;38063;53.210;6.504;2022-09-03T06:11:00;14.70;93.90
52058;DHT22;38063;53.210;6.504;2022-09-03T06:13:26;14.70;94.10
52058;DHT22;38063;53.210;6.504;2022-09-03T06:16:01;14.70;94.10
52058;DHT22;38063;53.210;6.504;2022-09-03T06:18:27;14.70;94.20
52058;DHT22;38063;53.210;6.504;2022-09-03T06:20:58;14.70;94.30
52058;DHT22;38063;53.210;6.504;2022-09-03T06:23:24;14.70;94.40
52058;DHT22;38063;53.210;6.504;2022-09-03T06:26:10;14.70;94.50
52058;DHT22;38063;53.210;6.504;2022-09-03T06:28:40;14.70;94.60
52058;DHT22;38063;53.210;6.504;2022-09-03T06:31:12;14.80;94.50
52058;DHT22;38063;53.210;6.504;2022-09-03T06:33:39;14.80;94.40
52058;DHT22;38063;53.210;6.504;2022-09-03T06:36:08;14.80;94.40
52058;DHT22;38063;53.210;6.504;2022-09-03T06:38:35;14.90;94.60
52058;DHT22;38063;53.210;6.504;2022-09-03T06:41:06;15.00;94.60
52058;DHT22;38063;53.210;6.504;2022-09-03T06:43:34;15.00;94.50
52058;DHT22;38063;53.210;6.504;2022-09-03T06:46:02;15.10;94.40
52058;DHT22;38063;53.210;6.504;2022-09-03T06:48:30;15.20;94.40
52058;DHT22;38063;53.210;6.504;2022-09-03T06:51:05;15.20;94.40
52058;DHT22;38063;53.210;6.504;2022-09-03T06:53:39;15.30;94.40
52058;DHT22;38063;53.210;6.504;2022-09-03T06:56:08;15.40;94.10
52058;DHT22;38063;53.210;6.504;2022-09-03T06:58:36;15.50;93.90
52058;DHT22;38063;53.210;6.504;2022-09-03T07:01:07;15.60;93.70
52058;DHT22;38063;53.210;6.504;2022-09-03T07:03:37;15.70;93.60
52058;DHT22;38063;53.210;6.504;2022-09-03T07:06:05;15.80;93.40
52058;DHT22;38063;53.210;6.504;2022-09-03T07:08:32;15.90;93.20
52058;DHT22;38063;53.210;6.504;2022-09-03T07:11:04;16.10;93.10
52058;DHT22;38063;53.210;6.504;2022-09-03T07:13:36;16.20;92.90
52058;DHT22;38063;53.210;6.504;2022-09-03T07:16:06;16.40;92.70
52058;DHT22;38063;53.210;6.504;2022-09-03T07:18:32;16.60;92.40
52058;DHT22;38063;53.210;6.504;2022-09-03T07:21:04;16.80;92.20
52058;DHT22;38063;53.210;6.504;2022-09-03T07:23:31;16.90;92.00
52058;DHT22;38063;53.210;6.504;2022-09-03T07:25:59;17.10;91.80
52058;DHT22;38063;53.210;6.504;2022-09-03T07:28:28;17.30;91.40
52058;DHT22;38063;53.210;6.504;2022-09-03T07:31:04;17.40;91.10
52058;DHT22;38063;53.210;6.504;2022-09-03T07:33:30;17.60;90.90
52058;DHT22;38063;53.210;6.504;2022-09-03T07:36:05;17.80;90.60
52058;DHT22;38063;53.210;6.504;2022-09-03T07:38:33;17.90;90.00
52058;DHT22;38063;53.210;6.504;2022-09-03T07:41:00;18.00;90.10
52058;DHT22;38063;53.210;6.504;2022-09-03T07:43:27;18.20;90.00
52058;DHT22;38063;53.210;6.504;2022-09-03T07:45:53;18.30;89.30
52058;DHT22;38063;53.210;6.504;2022-09-03T07:48:22;18.50;88.70
52058;DHT22;38063;53.210;6.504;2022-09-03T07:50:48;18.60;88.30
52058;DHT22;38063;53.210;6.504;2022-09-03T07:53:15;18.80;88.10
52058;DHT22;38063;53.210;6.504;2022-09-03T07:55:42;19.00;87.50
52058;DHT22;38063;53.210;6.504;2022-09-03T07:58:08;19.00;86.70
52058;DHT22;38063;53.210;6.504;2022-09-03T08:00:37;19.20;86.70
52058;DHT22;38063;53.210;6.504;2022-09-03T08:03:03;19.30;86.20
52058;DHT22;38063;53.210;6.504;2022-09-03T08:05:33;19.50;85.70
52058;DHT22;38063;53.210;6.504;2022-09-03T08:08:04;19.70;85.10
52058;DHT22;38063;53.210;6.504;2022-09-03T08:10:34;19.80;84.60
52058;DHT22;38063;53.210;6.504;2022-09-03T08:13:00;20.00;84.20
52058;DHT22;38063;53.210;6.504;2022-09-03T08:15:26;20.10;83.70
52058;DHT22;38063;53.210;6.504;2022-09-03T08:17:52;20.30;83.20
52058;DHT22;38063;53.210;6.504;2022-09-03T08:20:18;20.40;82.90
52058;DHT22;38063;53.210;6.504;2022-09-03T08:22:45;20.50;82.40
52058;DHT22;38063;53.210;6.504;2022-09-03T08:25:11;20.60;82.20
52058;DHT22;38063;53.210;6.504;2022-09-03T08:27:36;20.80;82.10
52058;DHT22;38063;53.210;6.504;2022-09-03T08:30:02;21.00;81.70
52058;DHT22;38063;53.210;6.504;2022-09-03T08:32:28;21.20;81.10
52058;DHT22;38063;53.210;6.504;2022-09-03T08:34:54;21.30;81.20
52058;DHT22;38063;53.210;6.504;2022-09-03T08:37:20;21.40;80.70
52058;DHT22;38063;53.210;6.504;2022-09-03T08:39:53;21.60;80.40
52058;DHT22;38063;53.210;6.504;2022-09-03T08:42:24;21.80;79.70
52058;DHT22;38063;53.210;6.504;2022-09-03T08:44:54;21.90;78.80
52058;DHT22;38063;53.210;6.504;2022-09-03T08:47:42;22.00;78.20
52058;DHT22;38063;53.210;6.504;2022-09-03T08:50:22;22.00;77.60
52058;DHT22;38063;53.210;6.504;2022-09-03T08:52:55;22.20;77.10
52058;DHT22;38063;53.210;6.504;2022-09-03T08:55:27;22.40;77.20
52058;DHT22;38063;53.210;6.504;2022-09-03T08:58:16;22.60;77.00
52058;DHT22;38063;53.210;6.504;2022-09-03T09:06:04;23.20;76.10
52058;DHT22;38063;53.210;6.504;2022-09-03T09:11:13;23.40;74.20
52058;DHT22;38063;53.210;6.504;2022-09-03T09:13:55;23.30;73.90
52058;DHT22;38063;53.210;6.504;2022-09-03T09:16:35;23.40;73.60
52058;DHT22;38063;53.210;6.504;2022-09-03T09:21:59;23.80;72.70
52058;DHT22;38063;53.210;6.504;2022-09-03T09:24:36;23.90;73.00
52058;DHT22;38063;53.210;6.504;2022-09-03T09:27:04;24.10;72.80
52058;DHT22;38063;53.210;6.504;2022-09-03T09:29:39;24.10;72.30
52058;DHT22;38063;53.210;6.504;2022-09-03T09:32:08;24.30;71.90
52058;DHT22;38063;53.210;6.504;2022-09-03T09:34:38;24.40;71.30
52058;DHT22;38063;53.210;6.504;2022-09-03T09:37:09;24.50;70.60
52058;DHT22;38063;53.210;6.504;2022-09-03T09:39:35;24.50;70.80
52058;DHT22;38063;53.210;6.504;2022-09-03T09:42:05;24.60;70.70
52058;DHT22;38063;53.210;6.504;2022-09-03T09:44:34;24.70;70.30
52058;DHT22;38063;53.210;6.504;2022-09-03T09:47:30;24.90;70.10
52058;DHT22;38063;53.210;6.504;2022-09-03T09:49:59;24.90;70.00
52058;DHT22;38063;53.210;6.504;2022-09-03T09:52:27;24.90;69.50
52058;DHT22;38063;53.210;6.504;2022-09-03T09:55:09;25.00;69.50
52058;DHT22;38063;53.210;6.504;2022-09-03T09:57:36;25.10;68.70
52058;DHT22;38063;53.210;6.504;2022-09-03T10:00:07;25.30;68.50
52058;DHT22;38063;53.210;6.504;2022-09-03T10:02:47;25.40;67.80
52058;DHT22;38063;53.210;6.504;2022-09-03T10:05:19;25.60;68.00
52058;DHT22;38063;53.210;6.504;2022-09-03T10:07:57;25.60;67.40
52058;DHT22;38063;53.210;6.504;2022-09-03T10:10:24;25.80;66.60
52058;DHT22;38063;53.210;6.504;2022-09-03T10:13:10;25.90;67.00
52058;DHT22;38063;53.210;6.504;2022-09-03T10:21:18;26.20;65.80
52058;DHT22;38063;53.210;6.504;2022-09-03T10:24:14;26.30;65.20
52058;DHT22;38063;53.210;6.504;2022-09-03T10:26:44;26.40;64.20
52058;DHT22;38063;53.210;6.504;2022-09-03T10:29:17;26.50;64.70
52058;DHT22;38063;53.210;6.504;2022-09-03T10:32:02;26.70;64.10
52058;DHT22;38063;53.210;6.504;2022-09-03T10:34:46;26.80;63.50
52058;DHT22;38063;53.210;6.504;2022-09-03T10:37:23;27.00;63.80
52058;DHT22;38063;53.210;6.504;2022-09-03T10:42:44;27.20;63.90
52058;DHT22;38063;53.210;6.504;2022-09-03T10:45:23;27.20;62.60
52058;DHT22;38063;53.210;6.504;2022-09-03T10:48:02;27.30;62.20
52058;DHT22;38063;53.210;6.504;2022-09-03T11:04:37;27.80;60.30
52058;DHT22;38063;53.210;6.504;2022-09-03T11:07:12;27.70;61.10
52058;DHT22;38063;53.210;6.504;2022-09-03T11:12:37;27.80;60.80
52058;DHT22;38063;53.210;6.504;2022-09-03T11:15:11;28.00;60.50
52058;DHT22;38063;53.210;6.504;2022-09-03T11:17:45;28.10;60.00
52058;DHT22;38063;53.210;6.504;2022-09-03T11:20:23;27.90;59.70
52058;DHT22;38063;53.210;6.504;2022-09-03T11:22:53;27.80;58.50
52058;DHT22;38063;53.210;6.504;2022-09-03T11:25:21;27.80;58.40
52058;DHT22;38063;53.210;6.504;2022-09-03T11:30:36;27.90;58.50
52058;DHT22;38063;53.210;6.504;2022-09-03T11:33:09;28.10;58.10
52058;DHT22;38063;53.210;6.504;2022-09-03T11:38:03;28.40;58.20
52058;DHT22;38063;53.210;6.504;2022-09-03T11:40:37;28.40;57.80
52058;DHT22;38063;53.210;6.504;2022-09-03T11:43:31;28.40;57.10
52058;DHT22;38063;53.210;6.504;2022-09-03T11:48:48;28.60;57.00
52058;DHT22;38063;53.210;6.504;2022-09-03T11:54:00;28.80;56.80
52058;DHT22;38063;53.210;6.504;2022-09-03T11:56:27;28.80;55.90
52058;DHT22;38063;53.210;6.504;2022-09-03T11:59:26;28.80;56.00
52058;DHT22;38063;53.210;6.504;2022-09-03T12:01:59;28.80;55.90
52058;DHT22;38063;53.210;6.504;2022-09-03T12:13:21;29.10;56.40
52058;DHT22;38063;53.210;6.504;2022-09-03T12:16:19;29.00;54.30
52058;DHT22;38063;53.210;6.504;2022-09-03T12:18:47;28.90;54.40
52058;DHT22;38063;53.210;6.504;2022-09-03T12:21:17;28.80;54.70
52058;DHT22;38063;53.210;6.504;2022-09-03T12:23:51;28.70;54.20
52058;DHT22;38063;53.210;6.504;2022-09-03T12:26:19;28.70;55.10
52058;DHT22;38063;53.210;6.504;2022-09-03T12:28:51;28.80;55.60
52058;DHT22;38063;53.210;6.504;2022-09-03T12:33:54;28.90;55.10
52058;DHT22;38063;53.210;6.504;2022-09-03T12:36:24;29.00;55.70
52058;DHT22;38063;53.210;6.504;2022-09-03T12:38:50;29.00;54.50
52058;DHT22;38063;53.210;6.504;2022-09-03T12:41:34;29.00;54.20
52058;DHT22;38063;53.210;6.504;2022-09-03T12:44:00;29.10;55.50
52058;DHT22;38063;53.210;6.504;2022-09-03T12:46:31;29.00;54.10
52058;DHT22;38063;53.210;6.504;2022-09-03T12:48:59;28.90;53.10
52058;DHT22;38063;53.210;6.504;2022-09-03T12:51:40;28.80;53.70
52058;DHT22;38063;53.210;6.504;2022-09-03T12:54:11;28.60;53.60
52058;DHT22;38063;53.210;6.504;2022-09-03T12:56:43;28.70;53.80
52058;DHT22;38063;53.210;6.504;2022-09-03T12:59:15;28.70;53.30
52058;DHT22;38063;53.210;6.504;2022-09-03T13:01:53;28.70;54.70
52058;DHT22;38063;53.210;6.504;2022-09-03T13:04:24;28.60;53.40
52058;DHT22;38063;53.210;6.504;2022-09-03T13:07:12;28.60;55.80
52058;DHT22;38063;53.210;6.504;2022-09-03T13:09:40;28.70;54.40
52058;DHT22;38063;53.210;6.504;2022-09-03T13:12:06;28.80;53.90
52058;DHT22;38063;53.210;6.504;2022-09-03T13:14:42;28.70;53.20
52058;DHT22;38063;53.210;6.504;2022-09-03T13:18:01;28.60;53.40
52058;DHT22;38063;53.210;6.504;2022-09-03T13:20:32;28.40;52.10
52058;DHT22;38063;53.210;6.504;2022-09-03T13:23:27;28.40;53.70
52058;DHT22;38063;53.210;6.504;2022-09-03T13:26:19;28.50;54.20
52058;DHT22;38063;53.210;6.504;2022-09-03T13:31:49;28.50;53.90
52058;DHT22;38063;53.210;6.504;2022-09-03T13:34:19;28.60;53.90
52058;DHT22;38063;53.210;6.504;2022-09-03T13:37:21;28.70;53.50
52058;DHT22;38063;53.210;6.504;2022-09-03T13:39:53;28.60;54.20
52058;DHT22;38063;53.210;6.504;2022-09-03T13:48:06;28.40;53.00
52058;DHT22;38063;53.210;6.504;2022-09-03T13:51:02;28.50;53.80
52058;DHT22;38063;53.210;6.504;2022-09-03T13:53:43;28.50;52.80
52058;DHT22;38063;53.210;6.504;2022-09-03T14:02:01;28.50;52.80
52058;DHT22;38063;53.210;6.504;2022-09-03T14:04:46;28.30;52.10
52058;DHT22;38063;53.210;6.504;2022-09-03T14:07:18;28.00;52.80
52058;DHT22;38063;53.210;6.504;2022-09-03T14:10:03;27.80;53.10
52058;DHT22;38063;53.210;6.504;2022-09-03T14:15:10;27.90;54.00
52058;DHT22;38063;53.210;6.504;2022-09-03T14:25:19;27.70;52.80
52058;DHT22;38063;53.210;6.504;2022-09-03T14:27:45;27.60;52.70
52058;DHT22;38063;53.210;6.504;2022-09-03T14:57:47;27.90;53.30
52058;DHT22;38063;53.210;6.504;2022-09-03T15:00:20;27.80;53.00
52058;DHT22;38063;53.210;6.504;2022-09-03T15:06:19;27.80;53.10
52058;DHT22;38063;53.210;6.504;2022-09-03T15:11:54;27.80;54.20
52058;DHT22;38063;53.210;6.504;2022-09-03T15:14:37;27.80;53.30
52058;DHT22;38063;53.210;6.504;2022-09-03T15:28:24;27.20;53.40
52058;DHT22;38063;53.210;6.504;2022-09-03T15:36:38;27.30;53.90
52058;DHT22;38063;53.210;6.504;2022-09-03T15:39:09;27.30;53.60
52058;DHT22;38063;53.210;6.504;2022-09-03T15:41:45;27.30;53.90
52058;DHT22;38063;53.210;6.504;2022-09-03T15:44:13;27.30;54.10
52058;DHT22;38063;53.210;6.504;2022-09-03T15:47:00;27.30;54.40
52058;DHT22;38063;53.210;6.504;2022-09-03T15:52:45;27.30;54.40
52058;DHT22;38063;53.210;6.504;2022-09-03T15:55:34;27.20;54.10
52058;DHT22;38063;53.210;6.504;2022-09-03T16:00:59;27.10;54.20
52058;DHT22;38063;53.210;6.504;2022-09-03T16:06:42;26.80;54.50
52058;DHT22;38063;53.210;6.504;2022-09-03T16:14:54;26.60;56.00
52058;DHT22;38063;53.210;6.504;2022-09-03T16:17:30;26.60;55.50
52058;DHT22;38063;53.210;6.504;2022-09-03T16:25:29;26.20;55.60
52058;DHT22;38063;53.210;6.504;2022-09-03T16:28:09;26.00;55.90
52058;DHT22;38063;53.210;6.504;2022-09-03T16:30:51;26.00;56.20
52058;DHT22;38063;53.210;6.504;2022-09-03T16:38:59;25.70;56.40
52058;DHT22;38063;53.210;6.504;2022-09-03T16:44:53;25.60;56.80
52058;DHT22;38063;53.210;6.504;2022-09-03T16:47:46;25.50;57.00
52058;DHT22;38063;53.210;6.504;2022-09-03T16:52:56;25.40;57.10
52058;DHT22;38063;53.210;6.504;2022-09-03T17:06:46;25.10;57.90
52058;DHT22;38063;53.210;6.504;2022-09-03T17:09:29;25.00;57.90
52058;DHT22;38063;53.210;6.504;2022-09-03T17:18:07;24.80;58.60
52058;DHT22;38063;53.210;6.504;2022-09-03T17:20:54;24.70;58.60
52058;DHT22;38063;53.210;6.504;2022-09-03T17:26:44;24.50;59.00
52058;DHT22;38063;53.210;6.504;2022-09-03T17:32:24;24.30;60.00
52058;DHT22;38063;53.210;6.504;2022-09-03T17:40:46;24.10;60.70
52058;DHT22;38063;53.210;6.504;2022-09-03T17:46:02;24.00;61.80
52058;DHT22;38063;53.210;6.504;2022-09-03T17:48:47;23.80;61.90
52058;DHT22;38063;53.210;6.504;2022-09-03T17:51:30;23.70;62.40
52058;DHT22;38063;53.210;6.504;2022-09-03T17:56:34;23.50;63.30
52058;DHT22;38063;53.210;6.504;2022-09-03T17:59:10;23.40;63.00
52058;DHT22;38063;53.210;6.504;2022-09-03T18:01:49;23.30;62.80
52058;DHT22;38063;53.210;6.504;2022-09-03T18:07:31;23.10;63.50
52058;DHT22;38063;53.210;6.504;2022-09-03T18:16:09;22.80;63.50
52058;DHT22;38063;53.210;6.504;2022-09-03T18:18:42;22.70;63.70
52058;DHT22;38063;53.210;6.504;2022-09-03T18:21:16;22.70;63.90
52058;DHT22;38063;53.210;6.504;2022-09-03T18:24:20;22.60;64.00
52058;DHT22;38063;53.210;6.504;2022-09-03T18:27:20;22.50;64.40
52058;DHT22;38063;53.210;6.504;2022-09-03T18:30:08;22.40;64.90
52058;DHT22;38063;53.210;6.504;2022-09-03T18:32:53;22.30;64.90
52058;DHT22;38063;53.210;6.504;2022-09-03T18:35:38;22.20;65.30
52058;DHT22;38063;53.210;6.504;2022-09-03T18:38:27;22.20;65.70
52058;DHT22;38063;53.210;6.504;2022-09-03T18:44:55;22.00;66.00
52058;DHT22;38063;53.210;6.504;2022-09-03T18:48:10;22.00;66.40
52058;DHT22;38063;53.210;6.504;2022-09-03T18:51:11;21.90;67.30
52058;DHT22;38063;53.210;6.504;2022-09-03T18:56:50;21.70;66.80
52058;DHT22;38063;53.210;6.504;2022-09-03T19:00:09;21.60;66.50
52058;DHT22;38063;53.210;6.504;2022-09-03T19:09:34;21.50;67.10
52058;DHT22;38063;53.210;6.504;2022-09-03T19:15:21;21.40;66.90
52058;DHT22;38063;53.210;6.504;2022-09-03T19:18:09;21.30;67.20
52058;DHT22;38063;53.210;6.504;2022-09-03T19:23:48;21.20;67.50
52058;DHT22;38063;53.210;6.504;2022-09-03T19:42:39;20.80;68.40
52058;DHT22;38063;53.210;6.504;2022-09-03T19:48:22;20.60;68.50
52058;DHT22;38063;53.210;6.504;2022-09-03T19:51:17;20.60;68.80
52058;DHT22;38063;53.210;6.504;2022-09-03T19:54:03;20.50;68.60
52058;DHT22;38063;53.210;6.504;2022-09-03T19:56:48;20.50;68.50
52058;DHT22;38063;53.210;6.504;2022-09-03T19:59:37;20.40;68.60
52058;DHT22;38063;53.210;6.504;2022-09-03T20:02:23;20.40;68.40
52058;DHT22;38063;53.210;6.504;2022-09-03T20:05:20;20.40;68.40
52058;DHT22;38063;53.210;6.504;2022-09-03T20:08:05;20.30;68.40
52058;DHT22;38063;53.210;6.504;2022-09-03T20:10:52;20.30;68.70
52058;DHT22;38063;53.210;6.504;2022-09-03T20:13:20;20.30;68.90
52058;DHT22;38063;53.210;6.504;2022-09-03T20:16:12;20.20;68.80
52058;DHT22;38063;53.210;6.504;2022-09-03T20:18:45;20.20;69.00
52058;DHT22;38063;53.210;6.504;2022-09-03T20:21:24;20.10;69.60
52058;DHT22;38063;53.210;6.504;2022-09-03T20:24:07;20.10;69.10
52058;DHT22;38063;53.210;6.504;2022-09-03T20:26:53;20.10;69.20
52058;DHT22;38063;53.210;6.504;2022-09-03T20:29:55;20.00;69.20
52058;DHT22;38063;53.210;6.504;2022-09-03T20:32:45;19.90;69.30
52058;DHT22;38063;53.210;6.504;2022-09-03T20:38:04;19.80;69.50
52058;DHT22;38063;53.210;6.504;2022-09-03T20:40:45;19.70;69.80
52058;DHT22;38063;53.210;6.504;2022-09-03T20:44:16;19.70;69.90
52058;DHT22;38063;53.210;6.504;2022-09-03T20:46:39;19.70;69.90
52058;DHT22;38063;53.210;6.504;2022-09-03T20:52:09;19.60;69.60
52058;DHT22;38063;53.210;6.504;2022-09-03T20:54:46;19.60;69.70
52058;DHT22;38063;53.210;6.504;2022-09-03T20:57:28;19.50;69.40
52058;DHT22;38063;53.210;6.504;2022-09-03T21:00:16;19.60;69.50
52058;DHT22;38063;53.210;6.504;2022-09-03T21:03:06;19.50;69.70
52058;DHT22;38063;53.210;6.504;2022-09-03T21:08:59;19.50;69.70
52058;DHT22;38063;53.210;6.504;2022-09-03T21:11:36;19.40;69.50
52058;DHT22;38063;53.210;6.504;2022-09-03T21:16:53;19.40;69.60
52058;DHT22;38063;53.210;6.504;2022-09-03T21:25:36;19.30;70.00
52058;DHT22;38063;53.210;6.504;2022-09-03T21:28:13;19.20;70.00
52058;DHT22;38063;53.210;6.504;2022-09-03T21:30:44;19.10;69.90